Time;durP1;ratioP1;P1;durP2;ratioP2;P2;SDS_P1;SDS_P2;PMS_P1;PMS_P2;Temp;Humidity;BMP_temperature;BMP_pressure;BME280_temperature;BME280_humidity;BME280_pressure;Samples;Min_cycle;Max_cycle;Signal;HPM_P1;HPM_P2
2022/06/08 03:52:54;;;;;;;4.47;3.22;;;;;;;16.41;100.00;99762.75;6309715;27;20091;31
2022/06/08 03:56:03;;;;;;;5.12;3.70;;;;;;;16.48;100.00;99764.31;5293108;33;33145;-92
2022/06/08 03:59:06;;;;;;;4.43;3.40;;;;;;;16.53;100.00;99767.19;5310972;33;33793;-88
2022/06/08 04:02:10;;;;;;;3.92;3.62;;;;;;;16.63;100.00;99755.72;5303552;33;33361;-88
2022/06/08 04:05:14;;;;;;;4.03;3.62;;;;;;;16.75;100.00;99751.16;5304437;33;34378;-88
2022/06/08 04:08:17;;;;;;;3.83;3.35;;;;;;;16.86;100.00;99741.37;5303421;33;33620;-88
2022/06/08 04:11:21;;;;;;;4.25;3.62;;;;;;;16.93;100.00;99746.72;5303809;33;33692;-88
2022/06/08 04:14:24;;;;;;;4.60;3.45;;;;;;;17.06;100.00;99754.66;5304021;33;34416;-88
2022/06/08 04:17:28;;;;;;;4.35;3.95;;;;;;;17.16;100.00;99754.06;5304136;33;34203;-88
2022/06/08 04:20:33;;;;;;;4.75;3.75;;;;;;;17.29;100.00;99748.41;5303650;33;35005;-88
2022/06/08 04:23:39;;;;;;;4.53;3.95;;;;;;;17.35;100.00;99752.88;5304242;33;33991;-88
2022/06/08 04:26:42;;;;;;;3.55;3.25;;;;;;;17.41;100.00;99749.22;5322531;33;34747;-88
2022/06/08 04:29:45;;;;;;;3.40;3.10;;;;;;;17.45;100.00;99746.81;5342462;33;34045;-88
2022/06/08 04:32:48;;;;;;;3.83;3.42;;;;;;;17.45;100.00;99735.94;5342796;33;33934;-88
2022/06/08 04:35:51;;;;;;;3.97;3.45;;;;;;;17.44;100.00;99745.19;5342809;33;33879;-88
2022/06/08 04:38:55;;;;;;;3.87;3.35;;;;;;;17.45;100.00;99752.28;5326450;33;34083;-88
2022/06/08 04:41:59;;;;;;;4.53;3.53;;;;;;;17.57;100.00;99755.81;5340925;33;33923;-88
2022/06/08 04:45:06;;;;;;;3.53;3.20;;;;;;;17.56;100.00;99756.87;5343918;33;35534;-88
2022/06/08 04:48:10;;;;;;;4.00;3.35;;;;;;;17.60;100.00;99749.06;5345958;33;33930;-88
2022/06/08 04:51:15;;;;;;;4.43;3.67;;;;;;;17.63;100.00;99748.56;5358873;33;34733;-88
2022/06/08 04:54:18;;;;;;;3.95;3.40;;;;;;;17.73;100.00;99743.38;5337664;33;32114;-87
2022/06/08 04:57:21;;;;;;;3.58;3.28;;;;;;;17.82;100.00;99733.78;5325296;33;33680;-87
2022/06/08 05:00:25;;;;;;;3.42;3.12;;;;;;;17.79;100.00;99742.44;5323998;33;34674;-87
2022/06/08 05:03:30;;;;;;;3.65;3.25;;;;;;;17.79;100.00;99739.72;5324564;33;35558;-87
2022/06/08 05:06:34;;;;;;;3.60;3.30;;;;;;;17.85;100.00;99738.75;5325315;33;35538;-87
2022/06/08 05:09:37;;;;;;;4.57;3.30;;;;;;;17.95;100.00;99748.19;5325279;33;34470;-87
2022/06/08 05:12:41;;;;;;;3.37;3.00;;;;;;;18.03;100.00;99759.53;5324956;33;33691;-87
2022/06/08 05:15:46;;;;;;;3.20;2.95;;;;;;;18.08;100.00;99751.47;5325054;33;34246;-87
2022/06/08 05:18:49;;;;;;;3.70;3.28;;;;;;;18.19;100.00;99752.47;5324900;33;33706;-86
2022/06/08 05:21:52;;;;;;;4.60;3.50;;;;;;;18.30;100.00;99762.50;5330030;33;34422;-85
2022/06/08 05:24:57;;;;;;;3.33;3.03;;;;;;;18.40;100.00;99764.59;5338508;33;34062;-85
2022/06/08 05:28:01;;;;;;;3.28;2.90;;;;;;;18.53;100.00;99768.91;5339103;33;33564;-85
2022/06/08 05:31:05;;;;;;;3.10;2.80;;;;;;;18.48;100.00;99774.25;5338326;33;35704;-85
2022/06/08 05:34:08;;;;;;;4.10;3.42;;;;;;;18.46;100.00;99760.88;5338342;33;34510;-85
2022/06/08 05:37:11;;;;;;;4.15;3.75;;;;;;;18.55;100.00;99761.31;5330193;33;33920;-85
2022/06/08 05:40:14;;;;;;;3.60;3.30;;;;;;;18.55;100.00;99751.25;5324076;33;34906;-85
2022/06/08 05:43:18;;;;;;;5.53;3.92;;;;;;;18.63;100.00;99749.16;5310826;33;32750;-85
2022/06/08 05:46:21;;;;;;;4.68;3.75;;;;;;;18.68;100.00;99744.63;5323585;33;33626;-85
2022/06/08 05:49:27;;;;;;;4.68;3.90;;;;;;;18.87;100.00;99758.09;5324124;33;33687;-85
2022/06/08 05:52:30;;;;;;;5.80;3.87;;;;;;;19.05;100.00;99752.38;5323778;33;33505;-90
2022/06/08 05:55:33;;;;;;;4.62;3.53;;;;;;;19.19;100.00;99750.94;5325120;33;33565;-90
2022/06/08 05:58:37;;;;;;;4.78;3.95;;;;;;;19.39;100.00;99757.78;5325825;33;34305;-90
2022/06/08 06:01:42;;;;;;;4.85;4.12;;;;;;;19.65;100.00;99758.97;5325416;33;34526;-86
2022/06/08 06:04:45;;;;;;;4.10;3.70;;;;;;;20.03;100.00;99766.28;5325399;33;35009;-86
2022/06/08 06:07:47;;;;;;;3.72;3.33;;;;;;;20.54;98.72;99785.22;5324754;33;33677;-87
2022/06/08 06:10:52;;;;;;;3.53;3.20;;;;;;;20.63;95.80;99791.06;5323578;33;33771;-87
2022/06/08 06:13:57;;;;;;;4.18;3.30;;;;;;;20.75;95.73;99789.78;5321603;33;34631;-86
2022/06/08 06:17:01;;;;;;;4.03;3.62;;;;;;;20.83;93.44;99791.25;5325050;33;34059;-87
2022/06/08 06:20:07;;;;;;;5.62;3.72;;;;;;;20.68;94.18;99791.06;5322928;33;32386;-86
2022/06/08 06:23:10;;;;;;;4.30;3.50;;;;;;;20.69;93.87;99776.34;5326377;33;34888;-86
2022/06/08 06:26:13;;;;;;;3.47;3.17;;;;;;;20.87;93.14;99781.41;5325906;33;35414;-86
2022/06/08 06:29:17;;;;;;;4.55;3.22;;;;;;;21.16;90.57;99784.66;5323699;33;35442;-86
2022/06/08 06:32:32;;;;;;;3.58;3.03;;;;;;;21.32;88.18;99776.56;5312931;33;34267;-86
2022/06/08 06:35:36;;;;;;;4.00;2.97;;;;;;;21.79;86.09;99779.34;5325433;33;33904;-86
2022/06/08 06:38:40;;;;;;;3.70;2.90;;;;;;;21.87;85.03;99769.78;5321879;33;33708;-86
2022/06/08 06:41:44;;;;;;;4.18;2.90;;;;;;;21.76;83.36;99774.38;5332311;33;33976;-86
2022/06/08 06:44:47;;;;;;;3.20;2.90;;;;;;;21.89;83.29;99762.94;5339458;33;35300;-87
2022/06/08 06:47:52;;;;;;;4.07;2.90;;;;;;;21.98;83.43;99765.16;5350296;33;35306;-87
2022/06/08 06:50:55;;;;;;;4.68;3.15;;;;;;;22.30;82.41;99756.81;5342629;33;35324;-87
2022/06/08 06:53:58;;;;;;;2.95;2.72;;;;;;;22.14;81.97;99764.13;5330763;33;34740;-87
2022/06/08 06:57:01;;;;;;;3.33;2.53;;;;;;;21.94;82.51;99768.44;5312098;33;34056;-87
2022/06/08 07:00:04;;;;;;;3.47;2.65;;;;;;;21.94;83.13;99765.72;5331316;33;34533;-87
2022/06/08 07:03:08;;;;;;;3.58;2.67;;;;;;;22.02;83.66;99752.56;5324634;33;33925;-87
2022/06/08 07:06:12;;;;;;;3.17;2.70;;;;;;;22.22;82.54;99749.91;5327945;33;35652;-87
2022/06/08 07:09:16;;;;;;;3.67;2.95;;;;;;;22.24;82.52;99739.50;5317714;33;35792;-87
2022/06/08 07:12:19;;;;;;;3.85;2.58;;;;;;;22.02;81.76;99744.34;5331202;33;34033;-88
2022/06/08 07:15:23;;;;;;;3.47;3.00;;;;;;;22.11;81.73;99739.97;5330180;33;35014;-88
2022/06/08 07:18:29;;;;;;;3.65;3.25;;;;;;;22.22;83.09;99733.47;5324963;33;33906;-87
2022/06/08 07:21:32;;;;;;;3.17;2.87;;;;;;;22.17;82.67;99728.81;5325771;33;34632;-88
2022/06/08 07:24:35;;;;;;;3.28;2.60;;;;;;;22.13;80.77;99724.09;5336106;33;34232;-88
2022/06/08 07:27:39;;;;;;;4.97;2.65;;;;;;;22.35;78.71;99727.47;5323479;33;32413;-87
2022/06/08 07:30:42;;;;;;;3.87;2.80;;;;;;;22.70;76.60;99717.63;5330166;33;35436;-88
2022/06/08 07:33:45;;;;;;;3.00;2.53;;;;;;;22.79;77.55;99721.47;5332031;33;34111;-88
2022/06/08 07:36:48;;;;;;;5.03;3.00;;;;;;;23.15;77.13;99723.41;5342973;33;34928;-87
2022/06/08 07:39:53;;;;;;;2.67;2.47;;;;;;;23.38;76.59;99728.28;5338318;33;35581;-88
2022/06/08 07:42:57;;;;;;;3.22;2.70;;;;;;;23.58;74.77;99732.09;5342121;33;34395;-88
2022/06/08 07:46:00;;;;;;;2.85;2.58;;;;;;;23.42;73.61;99725.81;5343439;33;35476;-88
2022/06/08 07:52:24;;;;;;;2.55;2.22;;;;;;;23.67;72.21;99727.66;5330745;33;35074;-88
2022/06/08 07:55:27;;;;;;;2.95;2.65;;;;;;;23.69;72.03;99723.53;5308620;33;33808;-88
2022/06/08 07:58:30;;;;;;;3.28;2.12;;;;;;;23.99;72.72;99713.53;5324560;33;34072;-88
2022/06/08 08:01:33;;;;;;;4.07;2.37;;;;;;;23.80;71.50;99720.75;5324601;33;34104;-85
2022/06/08 08:04:36;;;;;;;3.30;2.28;;;;;;;23.94;72.50;99706.13;5325685;33;34260;-87
2022/06/08 08:07:40;;;;;;;2.75;2.37;;;;;;;24.22;71.40;99703.78;5329373;33;34425;-87
2022/06/08 08:10:45;;;;;;;4.00;2.47;;;;;;;24.34;70.32;99692.41;5331812;33;35153;-87
2022/06/08 08:13:48;;;;;;;3.78;2.50;;;;;;;24.57;69.16;99702.72;5314399;33;31649;-87
2022/06/08 08:16:51;;;;;;;2.30;2.10;;;;;;;24.74;69.29;99704.22;5321680;33;34558;-87
2022/06/08 08:19:54;;;;;;;5.00;2.87;;;;;;;24.59;69.80;99700.50;5327330;33;33696;-87
2022/06/08 08:22:58;;;;;;;2.80;2.50;;;;;;;24.86;68.65;99700.00;5314055;33;33489;-87
2022/06/08 08:26:01;;;;;;;2.22;2.03;;;;;;;25.11;67.58;99701.69;5314152;33;34253;-87
2022/06/08 08:29:05;;;;;;;3.90;3.00;;;;;;;25.32;68.31;99702.31;5316878;33;33739;-87
2022/06/08 08:32:09;;;;;;;2.92;2.50;;;;;;;25.25;67.40;99701.84;5309807;33;33581;-87
2022/06/08 08:35:13;;;;;;;2.58;2.37;;;;;;;25.19;68.39;99699.47;5324583;33;34041;-86
2022/06/08 08:38:16;;;;;;;2.75;2.45;;;;;;;24.93;69.69;99696.91;5323076;33;34459;-88
2022/06/08 08:44:53;;;;;;;2.78;2.35;;;;;;;24.84;68.91;99698.66;5294811;33;33895;-87
2022/06/08 08:48:13;;;;;;;3.33;2.90;;;;;;;25.25;70.14;99701.03;5326824;33;34907;-87
2022/06/08 08:51:26;;;;;;;3.67;2.80;;;;;;;25.16;67.07;99694.53;5327693;33;32575;-87
2022/06/08 08:54:31;;;;;;;3.45;2.33;;;;;;;25.48;68.27;99703.00;5328604;33;33932;-86
2022/06/08 08:57:44;;;;;;;2.95;2.40;;;;;;;25.98;66.65;99694.41;5314116;33;32845;-86
2022/06/08 09:00:51;;;;;;;3.15;2.85;;;;;;;26.08;64.69;99690.66;5323063;33;34082;-89
2022/06/08 09:04:03;;;;;;;3.30;2.92;;;;;;;26.52;62.53;99687.53;5321637;33;34750;-86
2022/06/08 09:07:17;;;;;;;2.92;2.67;;;;;;;26.56;62.60;99684.97;5324581;33;34321;-86
2022/06/08 09:10:25;;;;;;;2.58;2.37;;;;;;;26.30;63.59;99679.03;5311749;33;33691;-86
2022/06/08 09:13:40;;;;;;;2.47;2.28;;;;;;;26.21;64.72;99676.13;5323647;33;33939;-85
2022/06/08 09:16:49;;;;;;;2.97;2.15;;;;;;;26.21;62.99;99676.94;5304315;33;32317;-86
2022/06/08 09:19:53;;;;;;;2.80;2.47;;;;;;;25.85;64.37;99675.81;5321045;33;34598;-86
2022/06/08 09:22:57;;;;;;;2.40;2.20;;;;;;;25.75;64.73;99680.31;5323586;33;34421;-86
2022/06/08 09:26:09;;;;;;;2.80;2.40;;;;;;;25.68;65.56;99681.78;5326149;33;32376;-86
2022/06/08 09:29:16;;;;;;;3.15;2.58;;;;;;;26.04;65.65;99676.66;5321296;33;34854;-86
2022/06/08 09:32:32;;;;;;;2.83;2.53;;;;;;;26.42;62.67;99682.97;5312012;33;33998;-86
2022/06/08 09:35:40;;;;;;;2.50;2.30;;;;;;;26.79;62.07;99688.75;5322902;33;33541;-87
2022/06/08 09:38:43;;;;;;;4.78;2.45;;;;;;;26.84;61.40;99683.97;5318576;33;36064;-87
2022/06/08 09:41:52;;;;;;;3.60;2.20;;;;;;;26.64;61.19;99676.84;5312617;33;32837;-86
2022/06/08 09:45:06;;;;;;;3.55;2.33;;;;;;;26.68;61.85;99669.59;5323664;33;34094;-87
2022/06/08 09:52:09;;;;;;;3.17;2.80;;;;;;;26.80;61.51;99654.50;5310449;33;33335;-87
2022/06/08 09:55:56;;;;;;;3.28;2.28;;;;;;;26.87;60.28;99647.44;5311134;33;34519;-87
2022/06/08 09:59:18;;;;;;;3.03;2.40;;;;;;;27.20;60.59;99647.41;5325374;33;34117;-87
2022/06/08 10:02:44;;;;;;;3.05;2.33;;;;;;;27.98;58.82;99631.66;5321760;33;33913;-87
2022/06/08 10:06:08;;;;;;;3.22;2.90;;;;;;;28.38;56.15;99625.50;5324317;33;33393;-87
2022/06/08 10:09:38;;;;;;;4.90;2.75;;;;;;;28.38;56.31;99611.66;5323879;33;34039;-87
2022/06/08 10:12:55;;;;;;;3.47;2.40;;;;;;;28.44;60.90;99596.56;5321651;33;35399;-91
2022/06/08 10:16:05;;;;;;;2.75;2.50;;;;;;;28.42;56.12;99602.41;5313846;33;33980;-87
2022/06/08 10:19:18;;;;;;;2.90;2.70;;;;;;;28.54;56.15;99601.00;5317776;33;33586;-86
2022/06/08 10:22:27;;;;;;;4.12;2.83;;;;;;;28.88;52.10;99600.38;5306490;33;33778;-87
2022/06/08 10:25:46;;;;;;;2.58;2.10;;;;;;;28.87;47.61;99601.50;5321414;33;33478;-87
2022/06/08 10:29:14;;;;;;;5.43;2.55;;;;;;;28.89;48.29;99602.00;5304254;33;33121;-86
2022/06/08 10:32:25;;;;;;;3.08;2.75;;;;;;;28.96;48.22;99596.84;5319857;33;33815;-87
2022/06/08 10:35:31;;;;;;;3.30;2.35;;;;;;;29.57;46.33;99589.56;5325566;33;34225;-87
2022/06/08 10:38:37;;;;;;;2.67;2.08;;;;;;;30.06;43.24;99590.25;5323114;33;33698;-86
2022/06/08 10:45:23;;;;;;;1.90;1.80;;;;;;;30.26;37.79;99574.91;5333383;33;33869;-85
2022/06/08 10:48:31;;;;;;;;;;;;;;;30.22;35.96;99570.34;5328275;33;33893;-90
2022/06/08 10:51:37;;;;;;;1.95;1.70;;;;;;;30.24;37.16;99563.31;5331550;33;35458;-89
2022/06/08 10:54:55;;;;;;;1.92;1.73;;;;;;;30.49;37.45;99558.84;5337743;33;35037;-87
2022/06/08 10:58:17;;;;;;;2.20;1.80;;;;;;;31.09;36.79;99556.19;5333821;33;35411;-86
2022/06/08 11:02:01;;;;;;;2.45;1.95;;;;;;;31.25;36.58;99556.44;5326547;33;33911;-87
2022/06/08 11:05:08;;;;;;;1.70;1.60;;;;;;;31.25;36.00;99564.78;5304569;33;34455;-86
2022/06/08 11:08:23;;;;;;;2.65;1.60;;;;;;;31.92;33.60;99549.13;5320228;33;34129;-86
2022/06/08 11:11:42;;;;;;;4.28;1.62;;;;;;;31.99;32.34;99549.38;5319541;33;35302;-86
2022/06/08 11:14:48;;;;;;;2.20;1.77;;;;;;;32.18;32.63;99552.50;5329686;33;34256;-86
2022/06/08 11:17:58;;;;;;;1.83;1.60;;;;;;;32.64;33.51;99547.75;5308109;33;33564;-86
2022/06/08 11:21:12;;;;;;;1.98;1.83;;;;;;;32.69;31.71;99544.72;5318513;33;32351;-86
2022/06/08 11:24:26;;;;;;;1.60;1.50;;;;;;;32.70;31.42;99540.81;5318556;33;33637;-90
2022/06/08 11:27:37;;;;;;;1.70;1.60;;;;;;;32.41;32.35;99535.34;5321535;33;33853;-87
2022/06/08 11:30:41;;;;;;;2.15;1.77;;;;;;;32.61;32.10;99531.72;5333762;33;34376;-86
2022/06/08 11:34:09;;;;;;;1.90;1.80;;;;;;;32.82;30.10;99526.06;5308021;33;33365;-86
2022/06/08 11:37:24;;;;;;;1.85;1.75;;;;;;;33.70;29.46;99525.62;5325709;33;35328;-85
2022/06/08 11:40:32;;;;;;;3.03;1.77;;;;;;;33.41;28.72;99517.19;5318865;33;33675;-87
2022/06/08 11:43:41;;;;;;;1.50;1.40;;;;;;;32.99;30.55;99508.28;5322314;33;33808;-87
2022/06/08 11:46:51;;;;;;;1.73;1.60;;;;;;;32.47;30.77;99509.75;5327219;33;34213;-87
2022/06/08 11:50:18;;;;;;;2.83;1.77;;;;;;;31.79;32.48;99507.28;5319160;33;34077;-87
2022/06/08 11:53:28;;;;;;;3.33;1.83;;;;;;;32.92;31.50;99514.44;5366039;27;34517;-87
2022/06/08 11:56:52;;;;;;;1.45;1.35;;;;;;;34.65;29.05;99509.12;5365554;33;33563;-88
2022/06/08 11:59:58;;;;;;;1.98;1.87;;;;;;;35.52;27.16;99515.59;5359780;33;33997;-86
2022/06/08 12:03:13;;;;;;;1.80;1.70;;;;;;;36.78;24.50;99500.84;5350641;33;33827;-86
2022/06/08 12:06:29;;;;;;;1.85;1.58;;;;;;;36.45;26.71;99497.87;5345144;33;35322;-89
2022/06/08 12:09:34;;;;;;;1.90;1.80;;;;;;;37.02;25.48;99489.63;5338374;33;32631;-85
2022/06/08 12:12:41;;;;;;;2.03;1.87;;;;;;;36.80;24.27;99492.06;5336520;33;33465;-86
2022/06/08 12:15:49;;;;;;;2.12;1.70;;;;;;;35.27;27.06;99489.84;5344450;33;34696;-85
2022/06/08 12:18:55;;;;;;;2.40;1.62;;;;;;;34.15;29.06;99494.62;5323735;33;31984;-85
2022/06/08 12:22:19;;;;;;;1.87;1.77;;;;;;;33.85;29.15;99496.97;5338590;33;34818;-86
2022/06/08 12:25:27;;;;;;;1.95;1.85;;;;;;;34.99;29.47;99482.41;5330414;33;34003;-86
2022/06/08 12:28:30;;;;;;;;;;;;;;;37.70;25.52;99473.72;5377122;27;35399;-86
2022/06/08 12:31:32;;;;;;;2.30;2.03;;;;;;;39.48;22.23;99453.97;5382298;33;34188;-85
2022/06/08 12:34:41;;;;;;;2.08;1.98;;;;;;;39.72;22.19;99456.06;5371557;33;33716;-85
2022/06/08 12:37:48;;;;;;;2.30;1.85;;;;;;;38.63;23.52;99458.63;5380147;33;36027;-85
2022/06/08 12:41:09;;;;;;;2.67;2.47;;;;;;;35.39;26.80;99467.31;5381167;33;34354;-86
2022/06/08 12:44:17;;;;;;;2.72;2.40;;;;;;;33.84;30.56;99448.69;5379567;33;33774;-86
2022/06/08 12:47:21;;;;;;;2.47;2.28;;;;;;;33.12;30.23;99437.41;5381317;33;34852;-86
2022/06/08 12:50:29;;;;;;;2.85;2.17;;;;;;;35.59;28.17;99434.56;5380862;33;33986;-86
2022/06/08 12:53:32;;;;;;;3.70;2.30;;;;;;;36.61;28.15;99428.44;5368097;33;32516;-87
2022/06/08 12:56:35;;;;;;;2.60;2.40;;;;;;;37.95;24.59;99429.06;5367157;33;32860;-87
2022/06/08 12:59:37;;;;;;;2.58;2.37;;;;;;;36.28;27.40;99429.09;5366860;33;32996;-87
2022/06/08 13:02:41;;;;;;;2.90;2.30;;;;;;;34.54;30.51;99433.34;5364129;33;32359;-86
2022/06/08 13:05:43;;;;;;;2.45;2.25;;;;;;;33.21;33.28;99426.09;5375230;33;34127;-86
2022/06/08 13:08:49;;;;;;;2.60;2.40;;;;;;;34.59;31.69;99429.50;5361826;33;32396;-86
2022/06/08 13:11:57;;;;;;;6.87;2.75;;;;;;;34.96;30.56;99424.38;5366852;33;33160;-90
2022/06/08 13:15:01;;;;;;;2.67;2.47;;;;;;;36.86;28.02;99419.59;5377069;33;135249;-89
2022/06/08 13:18:10;;;;;;;2.78;2.42;;;;;;;38.07;27.12;99412.72;5364868;33;32989;-86
2022/06/08 13:21:13;;;;;;;4.43;2.93;;;;;;;39.26;26.55;99417.22;5377659;33;33625;-87
2022/06/08 13:24:17;;;;;;;2.35;2.15;;;;;;;38.23;27.15;99423.72;5377625;33;34388;-87
2022/06/08 13:27:20;;;;;;;2.87;2.60;;;;;;;35.46;35.15;99447.06;5377403;33;33905;-86
2022/06/08 13:30:26;;;;;;;3.05;2.85;;;;;;;30.54;50.70;99462.56;5364774;33;32633;-86
2022/06/08 13:36:54;;;;;;;2.60;2.40;;;;;;;29.90;55.58;99464.22;5354287;33;34279;-86
2022/06/08 13:39:58;;;;;;;2.30;1.92;;;;;;;30.90;46.03;99451.00;5361436;33;34334;-85
2022/06/08 13:43:00;;;;;;;2.75;2.15;;;;;;;33.18;42.06;99447.16;5359536;33;33776;-86
2022/06/08 13:46:04;;;;;;;4.10;2.20;;;;;;;33.64;41.63;99449.72;5351070;33;33793;-86
2022/06/08 13:49:12;;;;;;;2.17;1.90;;;;;;;33.87;39.38;99449.94;5346294;33;33005;-86
2022/06/08 13:52:18;;;;;;;2.40;2.20;;;;;;;32.97;40.32;99452.84;5343753;33;33484;-86
2022/06/08 13:55:24;;;;;;;3.33;3.03;;;;;;;30.48;45.15;99459.19;5339008;33;34436;-86
2022/06/08 13:58:28;;;;;;;2.80;2.42;;;;;;;29.05;50.45;99478.56;5360090;33;33463;-85
2022/06/08 14:01:33;;;;;;;3.00;2.50;;;;;;;27.73;52.77;99516.88;5346576;33;33519;-85
2022/06/08 14:04:36;;;;;;;3.17;2.87;;;;;;;26.44;55.00;99517.88;5359610;33;34902;-86
2022/06/08 14:14:22;;;;;;;4.62;3.15;;;;;;;24.62;67.25;99556.78;5334185;33;32808;-84
2022/06/08 14:17:25;;;;;;;4.72;3.20;;;;;;;23.33;74.60;99563.50;5356940;33;33077;-84
2022/06/08 14:20:36;;;;;;;3.53;3.22;;;;;;;22.50;81.31;99577.72;5357180;33;34543;-85
2022/06/08 14:23:43;;;;;;;7.72;4.20;;;;;;;22.30;80.18;99584.84;5359210;33;34133;-89
2022/06/08 14:26:46;;;;;;;5.50;3.83;;;;;;;22.16;87.30;99583.72;5346754;33;34327;-89
2022/06/08 14:29:55;;;;;;;3.90;3.50;;;;;;;21.51;99.07;99588.84;5368518;33;33611;-85
2022/06/08 14:33:01;;;;;;;5.72;3.90;;;;;;;21.01;97.68;99585.59;5379017;33;33930;-85
2022/06/08 14:36:04;;;;;;;4.93;4.10;;;;;;;20.67;100.00;99585.09;5379557;33;34344;-85
2022/06/08 14:39:31;;;;;;;4.20;3.80;;;;;;;20.47;100.00;99576.72;5374397;33;33958;-85
2022/06/08 14:42:34;;;;;;;4.25;3.85;;;;;;;20.39;100.00;99565.22;5371884;33;33792;-85
2022/06/08 14:45:40;;;;;;;6.18;4.40;;;;;;;20.38;100.00;99569.00;5353954;33;32688;-85
2022/06/08 14:48:49;;;;;;;5.82;4.78;;;;;;;20.41;100.00;99570.41;5352765;33;33945;-85
2022/06/08 14:51:55;;;;;;;6.40;5.03;;;;;;;20.28;100.00;99576.34;5379609;33;34605;-84
2022/06/08 14:54:59;;;;;;;6.03;5.20;;;;;;;20.29;100.00;99576.06;5359252;33;32675;-85
2022/06/08 14:58:04;;;;;;;7.60;5.20;;;;;;;20.21;100.00;99560.16;5363237;33;32728;-84
2022/06/08 15:01:17;;;;;;;7.07;5.53;;;;;;;20.04;100.00;99541.16;5387089;33;33813;-85
2022/06/08 15:04:22;;;;;;;6.95;5.35;;;;;;;19.99;100.00;99545.75;5378184;33;33871;-86
2022/06/08 15:07:26;;;;;;;5.78;5.00;;;;;;;19.96;100.00;99538.91;5361975;33;34016;-86
2022/06/08 15:10:28;;;;;;;6.40;4.93;;;;;;;19.86;100.00;99531.47;5362247;33;33740;-85
2022/06/08 15:13:31;;;;;;;5.70;5.00;;;;;;;19.65;100.00;99527.69;5362325;33;33587;-85
2022/06/08 15:16:34;;;;;;;5.05;4.12;;;;;;;19.56;100.00;99522.94;5375770;33;34035;-85
2022/06/08 15:19:41;;;;;;;5.57;4.97;;;;;;;19.49;100.00;99512.22;5380800;33;34462;-85
2022/06/08 15:22:49;;;;;;;7.95;5.22;;;;;;;19.42;100.00;99525.22;5366124;33;34183;-85
2022/06/08 15:25:55;;;;;;;6.93;5.55;;;;;;;19.47;100.00;99515.19;5373379;33;33804;-85
2022/06/08 15:28:58;;;;;;;7.30;5.22;;;;;;;19.43;100.00;99524.16;5380237;33;34183;-85
2022/06/08 15:32:01;;;;;;;8.43;5.80;;;;;;;19.39;100.00;99528.47;5363393;33;34803;-86
2022/06/08 15:35:05;;;;;;;7.05;5.57;;;;;;;19.41;100.00;99529.06;5363300;33;32211;-86
2022/06/08 15:38:09;;;;;;;6.37;5.60;;;;;;;19.36;100.00;99535.28;5374805;33;34777;-85
2022/06/08 15:41:12;;;;;;;8.80;5.72;;;;;;;19.22;100.00;99543.06;5380887;33;33697;-86
2022/06/08 15:44:15;;;;;;;7.07;5.55;;;;;;;19.24;100.00;99553.69;5381025;33;33756;-86
2022/06/08 15:47:24;;;;;;;6.30;5.22;;;;;;;19.31;100.00;99551.63;5367246;33;33498;-87
2022/06/08 15:50:32;;;;;;;5.37;4.80;;;;;;;19.32;100.00;99566.91;5379601;33;33569;-90
2022/06/08 15:53:46;;;;;;;5.80;5.15;;;;;;;19.36;100.00;99553.56;5379510;33;34099;-86
2022/06/08 15:56:55;;;;;;;6.47;4.78;;;;;;;19.28;100.00;99541.22;5365898;33;34330;-86
